sensor_id;sensor_type;location;lat;lon;timestamp;P1;durP1;ratioP1;P2;durP2;ratioP2
61397;SDS011;47267;48.130;-2.040;2022-09-09T00:01:11;5.20;;;1.60;;
61397;SDS011;47267;48.130;-2.040;2022-09-09T00:07:24;3.78;;;1.17;;
61397;SDS011;47267;48.130;-2.040;2022-09-09T00:09:30;4.32;;;1.40;;
61397;SDS011;47267;48.130;-2.040;2022-09-09T00:15:13;6.53;;;1.38;;
61397;SDS011;47267;48.130;-2.040;2022-09-09T00:17:49;5.50;;;1.30;;
61397;SDS011;47267;48.130;-2.040;2022-09-09T00:23:15;3.05;;;1.00;;
61397;SDS011;47267;48.130;-2.040;2022-09-09T00:28:25;5.80;;;1.25;;
61397;SDS011;47267;48.130;-2.040;2022-09-09T00:30:52;6.60;;;1.33;;
61397;SDS011;47267;48.130;-2.040;2022-09-09T00:33:20;4.57;;;1.58;;
61397;SDS011;47267;48.130;-2.040;2022-09-09T00:35:49;5.18;;;1.40;;
61397;SDS011;47267;48.130;-2.040;2022-09-09T00:38:25;5.20;;;1.05;;
61397;SDS011;47267;48.130;-2.040;2022-09-09T00:57:47;5.30;;;1.70;;
61397;SDS011;47267;48.130;-2.040;2022-09-09T01:03:30;3.92;;;1.40;;
61397;SDS011;47267;48.130;-2.040;2022-09-09T01:11:22;4.82;;;1.30;;
61397;SDS011;47267;48.130;-2.040;2022-09-09T01:14:05;6.22;;;1.33;;
61397;SDS011;47267;48.130;-2.040;2022-09-09T01:16:50;5.30;;;1.48;;
61397;SDS011;47267;48.130;-2.040;2022-09-09T01:19:37;4.72;;;1.30;;
61397;SDS011;47267;48.130;-2.040;2022-09-09T01:22:19;5.32;;;1.25;;
61397;SDS011;47267;48.130;-2.040;2022-09-09T01:27:18;5.15;;;1.30;;
61397;SDS011;47267;48.130;-2.040;2022-09-09T01:29:45;3.22;;;1.35;;
61397;SDS011;47267;48.130;-2.040;2022-09-09T01:35:11;3.80;;;1.33;;
61397;SDS011;47267;48.130;-2.040;2022-09-09T01:40:26;2.53;;;0.93;;
61397;SDS011;47267;48.130;-2.040;2022-09-09T01:42:52;3.75;;;1.10;;
61397;SDS011;47267;48.130;-2.040;2022-09-09T01:45:19;4.90;;;1.23;;
61397;SDS011;47267;48.130;-2.040;2022-09-09T01:47:46;5.13;;;1.17;;
61397;SDS011;47267;48.130;-2.040;2022-09-09T01:50:13;4.85;;;1.50;;
61397;SDS011;47267;48.130;-2.040;2022-09-09T01:52:41;3.65;;;1.30;;
61397;SDS011;47267;48.130;-2.040;2022-09-09T01:55:10;3.25;;;1.13;;
61397;SDS011;47267;48.130;-2.040;2022-09-09T01:57:41;3.40;;;1.23;;
61397;SDS011;47267;48.130;-2.040;2022-09-09T02:00:26;4.07;;;1.25;;
61397;SDS011;47267;48.130;-2.040;2022-09-09T02:11:04;6.03;;;1.08;;
61397;SDS011;47267;48.130;-2.040;2022-09-09T02:13:35;4.40;;;1.02;;
61397;SDS011;47267;48.130;-2.040;2022-09-09T02:16:06;5.55;;;1.10;;
61397;SDS011;47267;48.130;-2.040;2022-09-09T02:18:40;3.70;;;1.10;;
61397;SDS011;47267;48.130;-2.040;2022-09-09T02:21:29;5.03;;;1.27;;
61397;SDS011;47267;48.130;-2.040;2022-09-09T02:23:57;4.38;;;1.20;;
61397;SDS011;47267;48.130;-2.040;2022-09-09T02:26:28;4.43;;;1.30;;
61397;SDS011;47267;48.130;-2.040;2022-09-09T02:28:55;3.50;;;1.00;;
61397;SDS011;47267;48.130;-2.040;2022-09-09T02:31:24;3.72;;;1.00;;
61397;SDS011;47267;48.130;-2.040;2022-09-09T02:33:52;3.88;;;1.27;;
61397;SDS011;47267;48.130;-2.040;2022-09-09T02:36:22;2.65;;;1.02;;
61397;SDS011;47267;48.130;-2.040;2022-09-09T02:38:51;5.18;;;0.95;;
61397;SDS011;47267;48.130;-2.040;2022-09-09T02:41:23;4.20;;;0.98;;
61397;SDS011;47267;48.130;-2.040;2022-09-09T02:43:55;3.25;;;1.05;;
61397;SDS011;47267;48.130;-2.040;2022-09-09T02:49:57;5.65;;;1.23;;
61397;SDS011;47267;48.130;-2.040;2022-09-09T02:54:33;3.75;;;1.02;;
61397;SDS011;47267;48.130;-2.040;2022-09-09T02:57:11;2.75;;;0.80;;
61397;SDS011;47267;48.130;-2.040;2022-09-09T02:59:41;3.35;;;1.13;;
61397;SDS011;47267;48.130;-2.040;2022-09-09T03:02:09;3.15;;;1.00;;
61397;SDS011;47267;48.130;-2.040;2022-09-09T03:04:36;4.07;;;1.02;;
61397;SDS011;47267;48.130;-2.040;2022-09-09T03:07:02;2.55;;;1.23;;
61397;SDS011;47267;48.130;-2.040;2022-09-09T03:09:29;2.58;;;0.93;;
61397;SDS011;47267;48.130;-2.040;2022-09-09T03:11:55;2.78;;;0.88;;
61397;SDS011;47267;48.130;-2.040;2022-09-09T03:14:21;4.30;;;1.10;;
61397;SDS011;47267;48.130;-2.040;2022-09-09T03:16:50;3.88;;;1.27;;
61397;SDS011;47267;48.130;-2.040;2022-09-09T03:19:16;4.88;;;1.20;;
61397;SDS011;47267;48.130;-2.040;2022-09-09T03:21:43;3.97;;;1.15;;
61397;SDS011;47267;48.130;-2.040;2022-09-09T03:24:10;3.30;;;1.00;;
61397;SDS011;47267;48.130;-2.040;2022-09-09T03:26:36;3.50;;;1.13;;
61397;SDS011;47267;48.130;-2.040;2022-09-09T03:29:03;2.75;;;1.02;;
61397;SDS011;47267;48.130;-2.040;2022-09-09T03:31:31;3.00;;;0.95;;
61397;SDS011;47267;48.130;-2.040;2022-09-09T03:34:01;4.78;;;1.17;;
61397;SDS011;47267;48.130;-2.040;2022-09-09T03:36:27;4.10;;;1.10;;
61397;SDS011;47267;48.130;-2.040;2022-09-09T03:38:54;4.18;;;1.17;;
61397;SDS011;47267;48.130;-2.040;2022-09-09T03:41:21;3.35;;;0.95;;
61397;SDS011;47267;48.130;-2.040;2022-09-09T03:43:49;2.80;;;1.00;;
61397;SDS011;47267;48.130;-2.040;2022-09-09T03:46:16;4.07;;;1.27;;
61397;SDS011;47267;48.130;-2.040;2022-09-09T03:48:42;5.57;;;1.25;;
61397;SDS011;47267;48.130;-2.040;2022-09-09T03:51:09;5.00;;;1.20;;
61397;SDS011;47267;48.130;-2.040;2022-09-09T03:53:35;3.72;;;1.05;;
61397;SDS011;47267;48.130;-2.040;2022-09-09T03:56:02;2.88;;;1.00;;
61397;SDS011;47267;48.130;-2.040;2022-09-09T03:58:31;3.40;;;1.02;;
61397;SDS011;47267;48.130;-2.040;2022-09-09T04:00:59;3.28;;;1.00;;
61397;SDS011;47267;48.130;-2.040;2022-09-09T04:03:26;4.75;;;1.20;;
61397;SDS011;47267;48.130;-2.040;2022-09-09T04:05:53;3.60;;;1.15;;
61397;SDS011;47267;48.130;-2.040;2022-09-09T04:08:20;3.53;;;0.98;;
61397;SDS011;47267;48.130;-2.040;2022-09-09T04:10:47;4.45;;;1.02;;
61397;SDS011;47267;48.130;-2.040;2022-09-09T04:13:14;2.63;;;0.90;;
61397;SDS011;47267;48.130;-2.040;2022-09-09T04:15:43;5.47;;;1.38;;
61397;SDS011;47267;48.130;-2.040;2022-09-09T04:18:09;4.50;;;1.00;;
61397;SDS011;47267;48.130;-2.040;2022-09-09T04:20:34;4.25;;;1.00;;
61397;SDS011;47267;48.130;-2.040;2022-09-09T04:23:00;2.83;;;0.80;;
61397;SDS011;47267;48.130;-2.040;2022-09-09T04:25:26;4.15;;;1.17;;
61397;SDS011;47267;48.130;-2.040;2022-09-09T04:27:55;4.18;;;0.90;;
61397;SDS011;47267;48.130;-2.040;2022-09-09T04:30:22;4.38;;;1.02;;
61397;SDS011;47267;48.130;-2.040;2022-09-09T04:32:48;3.67;;;1.20;;
61397;SDS011;47267;48.130;-2.040;2022-09-09T04:35:14;2.95;;;1.00;;
61397;SDS011;47267;48.130;-2.040;2022-09-09T04:37:40;3.13;;;1.02;;
61397;SDS011;47267;48.130;-2.040;2022-09-09T04:40:06;3.72;;;1.00;;
61397;SDS011;47267;48.130;-2.040;2022-09-09T04:42:38;3.13;;;0.90;;
61397;SDS011;47267;48.130;-2.040;2022-09-09T04:45:05;3.95;;;0.88;;
61397;SDS011;47267;48.130;-2.040;2022-09-09T04:47:31;3.28;;;0.95;;
61397;SDS011;47267;48.130;-2.040;2022-09-09T04:50:00;3.83;;;0.93;;
61397;SDS011;47267;48.130;-2.040;2022-09-09T04:52:26;2.38;;;0.90;;
61397;SDS011;47267;48.130;-2.040;2022-09-09T04:54:52;3.30;;;0.85;;
61397;SDS011;47267;48.130;-2.040;2022-09-09T04:57:19;6.57;;;1.40;;
61397;SDS011;47267;48.130;-2.040;2022-09-09T04:59:45;3.13;;;1.00;;
61397;SDS011;47267;48.130;-2.040;2022-09-09T05:02:11;4.47;;;1.30;;
61397;SDS011;47267;48.130;-2.040;2022-09-09T05:04:37;3.08;;;0.88;;
61397;SDS011;47267;48.130;-2.040;2022-09-09T05:07:02;4.68;;;1.25;;
61397;SDS011;47267;48.130;-2.040;2022-09-09T05:09:28;1.83;;;0.80;;
61397;SDS011;47267;48.130;-2.040;2022-09-09T05:11:55;3.15;;;1.00;;
61397;SDS011;47267;48.130;-2.040;2022-09-09T05:14:21;4.13;;;0.90;;
61397;SDS011;47267;48.130;-2.040;2022-09-09T05:16:47;3.47;;;1.17;;
61397;SDS011;47267;48.130;-2.040;2022-09-09T05:19:14;2.95;;;0.70;;
61397;SDS011;47267;48.130;-2.040;2022-09-09T05:21:40;4.57;;;1.02;;
61397;SDS011;47267;48.130;-2.040;2022-09-09T05:24:06;3.38;;;1.00;;
61397;SDS011;47267;48.130;-2.040;2022-09-09T05:26:32;4.05;;;0.90;;
61397;SDS011;47267;48.130;-2.040;2022-09-09T05:28:58;4.90;;;1.13;;
61397;SDS011;47267;48.130;-2.040;2022-09-09T05:31:25;4.35;;;1.40;;
61397;SDS011;47267;48.130;-2.040;2022-09-09T05:33:53;3.20;;;0.95;;
61397;SDS011;47267;48.130;-2.040;2022-09-09T05:36:20;2.30;;;1.05;;
61397;SDS011;47267;48.130;-2.040;2022-09-09T05:38:47;3.25;;;1.08;;
61397;SDS011;47267;48.130;-2.040;2022-09-09T05:41:14;3.63;;;0.90;;
61397;SDS011;47267;48.130;-2.040;2022-09-09T05:43:41;2.90;;;1.17;;
61397;SDS011;47267;48.130;-2.040;2022-09-09T05:46:27;4.18;;;1.10;;
61397;SDS011;47267;48.130;-2.040;2022-09-09T05:48:53;5.47;;;1.30;;
61397;SDS011;47267;48.130;-2.040;2022-09-09T05:51:20;3.50;;;1.10;;
61397;SDS011;47267;48.130;-2.040;2022-09-09T05:53:47;3.08;;;0.85;;
61397;SDS011;47267;48.130;-2.040;2022-09-09T05:56:15;4.35;;;1.23;;
61397;SDS011;47267;48.130;-2.040;2022-09-09T05:58:44;3.05;;;1.00;;
61397;SDS011;47267;48.130;-2.040;2022-09-09T06:01:15;3.97;;;1.02;;
61397;SDS011;47267;48.130;-2.040;2022-09-09T06:03:42;4.78;;;1.30;;
61397;SDS011;47267;48.130;-2.040;2022-09-09T06:06:11;3.78;;;0.88;;
61397;SDS011;47267;48.130;-2.040;2022-09-09T06:08:38;7.68;;;1.52;;
61397;SDS011;47267;48.130;-2.040;2022-09-09T06:13:33;4.57;;;1.35;;
61397;SDS011;47267;48.130;-2.040;2022-09-09T06:16:00;10.00;;;1.48;;
61397;SDS011;47267;48.130;-2.040;2022-09-09T06:18:26;4.50;;;1.10;;
61397;SDS011;47267;48.130;-2.040;2022-09-09T06:20:55;6.90;;;1.10;;
61397;SDS011;47267;48.130;-2.040;2022-09-09T06:23:26;8.48;;;1.50;;
61397;SDS011;47267;48.130;-2.040;2022-09-09T06:28:30;6.85;;;1.52;;
61397;SDS011;47267;48.130;-2.040;2022-09-09T06:31:00;5.22;;;1.25;;
61397;SDS011;47267;48.130;-2.040;2022-09-09T06:33:30;5.70;;;1.30;;
61397;SDS011;47267;48.130;-2.040;2022-09-09T06:35:57;20.58;;;1.77;;
61397;SDS011;47267;48.130;-2.040;2022-09-09T06:38:23;4.38;;;1.20;;
61397;SDS011;47267;48.130;-2.040;2022-09-09T06:40:52;3.40;;;1.30;;
61397;SDS011;47267;48.130;-2.040;2022-09-09T06:43:20;6.88;;;1.52;;
61397;SDS011;47267;48.130;-2.040;2022-09-09T06:45:59;4.32;;;1.30;;
61397;SDS011;47267;48.130;-2.040;2022-09-09T06:48:26;7.53;;;1.20;;
61397;SDS011;47267;48.130;-2.040;2022-09-09T06:51:15;6.25;;;1.40;;
61397;SDS011;47267;48.130;-2.040;2022-09-09T06:53:43;3.72;;;1.13;;
61397;SDS011;47267;48.130;-2.040;2022-09-09T06:58:39;8.85;;;1.60;;
61397;SDS011;47267;48.130;-2.040;2022-09-09T07:01:12;4.35;;;1.02;;
61397;SDS011;47267;48.130;-2.040;2022-09-09T07:03:40;5.13;;;1.20;;
61397;SDS011;47267;48.130;-2.040;2022-09-09T07:06:08;5.05;;;1.50;;
61397;SDS011;47267;48.130;-2.040;2022-09-09T07:08:39;5.90;;;1.50;;
61397;SDS011;47267;48.130;-2.040;2022-09-09T07:11:05;6.03;;;1.17;;
61397;SDS011;47267;48.130;-2.040;2022-09-09T07:13:32;5.65;;;1.30;;
61397;SDS011;47267;48.130;-2.040;2022-09-09T07:16:05;5.10;;;1.17;;
61397;SDS011;47267;48.130;-2.040;2022-09-09T07:18:34;2.72;;;0.90;;
61397;SDS011;47267;48.130;-2.040;2022-09-09T07:21:01;3.53;;;1.02;;
61397;SDS011;47267;48.130;-2.040;2022-09-09T07:23:28;3.78;;;1.13;;
61397;SDS011;47267;48.130;-2.040;2022-09-09T07:25:55;4.28;;;1.20;;
61397;SDS011;47267;48.130;-2.040;2022-09-09T07:28:24;4.90;;;1.08;;
61397;SDS011;47267;48.130;-2.040;2022-09-09T07:30:56;5.90;;;1.42;;
61397;SDS011;47267;48.130;-2.040;2022-09-09T07:33:24;2.45;;;1.10;;
61397;SDS011;47267;48.130;-2.040;2022-09-09T07:35:51;4.85;;;1.10;;
61397;SDS011;47267;48.130;-2.040;2022-09-09T07:38:18;3.30;;;1.10;;
61397;SDS011;47267;48.130;-2.040;2022-09-09T07:40:45;3.72;;;0.95;;
61397;SDS011;47267;48.130;-2.040;2022-09-09T07:43:11;5.95;;;0.98;;
61397;SDS011;47267;48.130;-2.040;2022-09-09T07:45:37;6.40;;;1.25;;
61397;SDS011;47267;48.130;-2.040;2022-09-09T07:48:03;3.10;;;1.10;;
61397;SDS011;47267;48.130;-2.040;2022-09-09T07:50:30;4.85;;;0.90;;
61397;SDS011;47267;48.130;-2.040;2022-09-09T07:52:56;3.65;;;1.10;;
61397;SDS011;47267;48.130;-2.040;2022-09-09T07:55:22;3.45;;;0.82;;
61397;SDS011;47267;48.130;-2.040;2022-09-09T07:57:52;3.72;;;0.95;;
61397;SDS011;47267;48.130;-2.040;2022-09-09T08:00:18;3.08;;;0.90;;
61397;SDS011;47267;48.130;-2.040;2022-09-09T08:02:46;5.18;;;1.00;;
61397;SDS011;47267;48.130;-2.040;2022-09-09T08:05:12;2.65;;;0.80;;
61397;SDS011;47267;48.130;-2.040;2022-09-09T08:07:38;1.42;;;0.60;;
61397;SDS011;47267;48.130;-2.040;2022-09-09T08:10:04;3.05;;;0.90;;
61397;SDS011;47267;48.130;-2.040;2022-09-09T08:12:31;5.45;;;1.17;;
61397;SDS011;47267;48.130;-2.040;2022-09-09T08:14:57;8.13;;;2.08;;
61397;SDS011;47267;48.130;-2.040;2022-09-09T08:17:23;9.63;;;1.58;;
61397;SDS011;47267;48.130;-2.040;2022-09-09T08:19:50;5.80;;;1.73;;
61397;SDS011;47267;48.130;-2.040;2022-09-09T08:22:16;6.25;;;1.30;;
61397;SDS011;47267;48.130;-2.040;2022-09-09T08:24:42;5.25;;;1.08;;
61397;SDS011;47267;48.130;-2.040;2022-09-09T08:27:08;13.38;;;1.52;;
61397;SDS011;47267;48.130;-2.040;2022-09-09T08:29:34;7.05;;;1.50;;
61397;SDS011;47267;48.130;-2.040;2022-09-09T08:32:02;5.95;;;1.52;;
61397;SDS011;47267;48.130;-2.040;2022-09-09T08:34:29;5.68;;;1.50;;
61397;SDS011;47267;48.130;-2.040;2022-09-09T08:36:56;8.80;;;1.50;;
61397;SDS011;47267;48.130;-2.040;2022-09-09T08:39:22;6.60;;;1.60;;
61397;SDS011;47267;48.130;-2.040;2022-09-09T08:41:55;6.60;;;1.27;;
61397;SDS011;47267;48.130;-2.040;2022-09-09T08:54:59;5.57;;;1.40;;
61397;SDS011;47267;48.130;-2.040;2022-09-09T08:57:38;4.70;;;1.10;;
61397;SDS011;47267;48.130;-2.040;2022-09-09T09:00:04;7.05;;;1.67;;
61397;SDS011;47267;48.130;-2.040;2022-09-09T09:02:46;5.30;;;1.27;;
61397;SDS011;47267;48.130;-2.040;2022-09-09T09:05:44;4.72;;;1.20;;
61397;SDS011;47267;48.130;-2.040;2022-09-09T09:11:35;6.60;;;1.30;;
61397;SDS011;47267;48.130;-2.040;2022-09-09T09:14:15;6.20;;;1.73;;
61397;SDS011;47267;48.130;-2.040;2022-09-09T09:17:04;5.97;;;1.33;;
61397;SDS011;47267;48.130;-2.040;2022-09-09T09:19:34;6.68;;;1.52;;
61397;SDS011;47267;48.130;-2.040;2022-09-09T09:22:10;5.03;;;1.10;;
61397;SDS011;47267;48.130;-2.040;2022-09-09T09:30:14;4.72;;;1.35;;
61397;SDS011;47267;48.130;-2.040;2022-09-09T09:35:12;4.75;;;1.33;;
61397;SDS011;47267;48.130;-2.040;2022-09-09T09:37:39;3.72;;;0.98;;
61397;SDS011;47267;48.130;-2.040;2022-09-09T09:40:13;5.43;;;1.10;;
61397;SDS011;47267;48.130;-2.040;2022-09-09T09:45:33;4.05;;;1.10;;
61397;SDS011;47267;48.130;-2.040;2022-09-09T09:48:06;5.22;;;1.10;;
61397;SDS011;47267;48.130;-2.040;2022-09-09T09:50:39;9.93;;;1.30;;
61397;SDS011;47267;48.130;-2.040;2022-09-09T09:53:25;5.72;;;1.58;;
61397;SDS011;47267;48.130;-2.040;2022-09-09T09:58:22;4.68;;;1.38;;
61397;SDS011;47267;48.130;-2.040;2022-09-09T10:00:50;3.88;;;1.38;;
61397;SDS011;47267;48.130;-2.040;2022-09-09T10:03:28;4.60;;;1.05;;
61397;SDS011;47267;48.130;-2.040;2022-09-09T10:05:56;5.00;;;1.20;;
61397;SDS011;47267;48.130;-2.040;2022-09-09T10:08:25;5.97;;;1.40;;
61397;SDS011;47267;48.130;-2.040;2022-09-09T10:13:53;5.50;;;1.20;;
61397;SDS011;47267;48.130;-2.040;2022-09-09T10:19:14;7.20;;;1.63;;
61397;SDS011;47267;48.130;-2.040;2022-09-09T10:24:30;3.42;;;1.13;;
61397;SDS011;47267;48.130;-2.040;2022-09-09T10:27:19;7.50;;;1.13;;
61397;SDS011;47267;48.130;-2.040;2022-09-09T10:30:28;6.15;;;1.30;;
61397;SDS011;47267;48.130;-2.040;2022-09-09T10:33:09;4.30;;;0.90;;
61397;SDS011;47267;48.130;-2.040;2022-09-09T10:35:44;7.70;;;1.80;;
61397;SDS011;47267;48.130;-2.040;2022-09-09T10:38:42;3.85;;;1.17;;
61397;SDS011;47267;48.130;-2.040;2022-09-09T10:41:18;3.15;;;1.13;;
61397;SDS011;47267;48.130;-2.040;2022-09-09T10:49:52;4.18;;;1.13;;
61397;SDS011;47267;48.130;-2.040;2022-09-09T10:57:51;4.47;;;1.30;;
61397;SDS011;47267;48.130;-2.040;2022-09-09T11:00:52;4.82;;;1.20;;
61397;SDS011;47267;48.130;-2.040;2022-09-09T11:03:18;5.82;;;1.10;;
61397;SDS011;47267;48.130;-2.040;2022-09-09T11:05:52;3.05;;;0.90;;
61397;SDS011;47267;48.130;-2.040;2022-09-09T11:08:26;4.65;;;1.10;;
61397;SDS011;47267;48.130;-2.040;2022-09-09T11:11:11;3.25;;;0.90;;
61397;SDS011;47267;48.130;-2.040;2022-09-09T11:19:34;4.63;;;1.30;;
61397;SDS011;47267;48.130;-2.040;2022-09-09T11:25:14;3.67;;;1.13;;
61397;SDS011;47267;48.130;-2.040;2022-09-09T11:32:49;3.63;;;1.08;;
61397;SDS011;47267;48.130;-2.040;2022-09-09T11:38:32;5.25;;;1.33;;
61397;SDS011;47267;48.130;-2.040;2022-09-09T11:41:05;4.28;;;1.17;;
61397;SDS011;47267;48.130;-2.040;2022-09-09T11:43:51;3.25;;;1.13;;
61397;SDS011;47267;48.130;-2.040;2022-09-09T11:46:18;3.63;;;1.00;;
61397;SDS011;47267;48.130;-2.040;2022-09-09T11:48:58;5.60;;;0.95;;
61397;SDS011;47267;48.130;-2.040;2022-09-09T11:51:27;4.07;;;1.00;;
61397;SDS011;47267;48.130;-2.040;2022-09-09T11:53:58;4.20;;;0.98;;
61397;SDS011;47267;48.130;-2.040;2022-09-09T11:59:24;4.13;;;0.82;;
61397;SDS011;47267;48.130;-2.040;2022-09-09T12:01:55;3.42;;;1.02;;
61397;SDS011;47267;48.130;-2.040;2022-09-09T12:05:22;2.53;;;0.65;;
61397;SDS011;47267;48.130;-2.040;2022-09-09T12:12:47;3.72;;;1.10;;
61397;SDS011;47267;48.130;-2.040;2022-09-09T12:27:59;2.80;;;0.73;;
61397;SDS011;47267;48.130;-2.040;2022-09-09T12:31:01;2.13;;;0.80;;
61397;SDS011;47267;48.130;-2.040;2022-09-09T12:33:47;4.55;;;1.08;;
61397;SDS011;47267;48.130;-2.040;2022-09-09T12:36:23;2.92;;;0.80;;
61397;SDS011;47267;48.130;-2.040;2022-09-09T12:38:54;4.80;;;0.82;;
61397;SDS011;47267;48.130;-2.040;2022-09-09T12:41:25;2.72;;;0.90;;
61397;SDS011;47267;48.130;-2.040;2022-09-09T12:44:09;3.22;;;0.77;;
61397;SDS011;47267;48.130;-2.040;2022-09-09T12:49:03;2.92;;;0.90;;
61397;SDS011;47267;48.130;-2.040;2022-09-09T12:51:30;2.83;;;1.05;;
61397;SDS011;47267;48.130;-2.040;2022-09-09T12:53:58;2.55;;;0.80;;
61397;SDS011;47267;48.130;-2.040;2022-09-09T12:56:25;5.40;;;1.15;;
61397;SDS011;47267;48.130;-2.040;2022-09-09T12:58:56;3.63;;;0.90;;
61397;SDS011;47267;48.130;-2.040;2022-09-09T13:01:32;2.05;;;0.68;;
61397;SDS011;47267;48.130;-2.040;2022-09-09T13:03:58;4.03;;;0.70;;
61397;SDS011;47267;48.130;-2.040;2022-09-09T13:06:25;3.47;;;0.88;;
61397;SDS011;47267;48.130;-2.040;2022-09-09T13:08:54;3.55;;;0.85;;
61397;SDS011;47267;48.130;-2.040;2022-09-09T13:14:02;3.47;;;0.80;;
61397;SDS011;47267;48.130;-2.040;2022-09-09T13:16:28;3.10;;;0.90;;
61397;SDS011;47267;48.130;-2.040;2022-09-09T13:19:00;3.15;;;0.80;;
61397;SDS011;47267;48.130;-2.040;2022-09-09T13:21:39;4.57;;;0.98;;
61397;SDS011;47267;48.130;-2.040;2022-09-09T13:24:06;3.42;;;0.70;;
61397;SDS011;47267;48.130;-2.040;2022-09-09T13:26:54;6.20;;;0.90;;
61397;SDS011;47267;48.130;-2.040;2022-09-09T13:29:23;2.63;;;0.75;;
61397;SDS011;47267;48.130;-2.040;2022-09-09T13:31:49;2.97;;;0.82;;
61397;SDS011;47267;48.130;-2.040;2022-09-09T13:34:31;3.35;;;0.90;;
61397;SDS011;47267;48.130;-2.040;2022-09-09T13:37:02;2.55;;;0.90;;
61397;SDS011;47267;48.130;-2.040;2022-09-09T13:39:32;3.85;;;0.90;;
61397;SDS011;47267;48.130;-2.040;2022-09-09T13:42:01;4.35;;;0.80;;
61397;SDS011;47267;48.130;-2.040;2022-09-09T13:44:35;3.60;;;0.95;;
61397;SDS011;47267;48.130;-2.040;2022-09-09T13:47:05;4.35;;;0.85;;
61397;SDS011;47267;48.130;-2.040;2022-09-09T13:49:44;3.05;;;0.90;;
61397;SDS011;47267;48.130;-2.040;2022-09-09T13:52:12;3.00;;;0.80;;
61397;SDS011;47267;48.130;-2.040;2022-09-09T13:54:40;2.55;;;0.70;;
61397;SDS011;47267;48.130;-2.040;2022-09-09T13:57:14;3.03;;;0.90;;
61397;SDS011;47267;48.130;-2.040;2022-09-09T13:59:48;6.03;;;0.90;;
61397;SDS011;47267;48.130;-2.040;2022-09-09T14:02:14;2.10;;;0.70;;
61397;SDS011;47267;48.130;-2.040;2022-09-09T14:04:44;2.25;;;0.52;;
61397;SDS011;47267;48.130;-2.040;2022-09-09T14:07:13;2.70;;;0.80;;
61397;SDS011;47267;48.130;-2.040;2022-09-09T14:09:47;1.48;;;0.70;;
61397;SDS011;47267;48.130;-2.040;2022-09-09T14:12:15;1.98;;;0.63;;
61397;SDS011;47267;48.130;-2.040;2022-09-09T14:14:41;4.35;;;1.00;;
61397;SDS011;47267;48.130;-2.040;2022-09-09T14:17:07;3.92;;;0.80;;
61397;SDS011;47267;48.130;-2.040;2022-09-09T14:19:34;3.42;;;0.80;;
61397;SDS011;47267;48.130;-2.040;2022-09-09T14:21:59;2.00;;;0.68;;
61397;SDS011;47267;48.130;-2.040;2022-09-09T14:24:26;1.42;;;0.75;;
61397;SDS011;47267;48.130;-2.040;2022-09-09T14:26:52;2.03;;;0.65;;
61397;SDS011;47267;48.130;-2.040;2022-09-09T14:29:18;3.08;;;0.90;;
61397;SDS011;47267;48.130;-2.040;2022-09-09T14:31:44;3.47;;;0.70;;
61397;SDS011;47267;48.130;-2.040;2022-09-09T14:34:10;2.72;;;0.70;;
61397;SDS011;47267;48.130;-2.040;2022-09-09T14:36:37;2.65;;;0.80;;
61397;SDS011;47267;48.130;-2.040;2022-09-09T14:39:03;3.28;;;0.98;;
61397;SDS011;47267;48.130;-2.040;2022-09-09T14:41:29;3.55;;;0.98;;
61397;SDS011;47267;48.130;-2.040;2022-09-09T14:43:55;3.42;;;0.63;;
61397;SDS011;47267;48.130;-2.040;2022-09-09T14:46:21;4.15;;;0.95;;
61397;SDS011;47267;48.130;-2.040;2022-09-09T14:48:47;6.57;;;0.93;;
61397;SDS011;47267;48.130;-2.040;2022-09-09T14:51:19;2.90;;;0.60;;
61397;SDS011;47267;48.130;-2.040;2022-09-09T14:53:53;3.72;;;0.80;;
61397;SDS011;47267;48.130;-2.040;2022-09-09T14:56:21;6.82;;;0.70;;
61397;SDS011;47267;48.130;-2.040;2022-09-09T14:58:55;4.35;;;0.65;;
61397;SDS011;47267;48.130;-2.040;2022-09-09T15:01:22;2.88;;;1.00;;
61397;SDS011;47267;48.130;-2.040;2022-09-09T15:03:52;4.25;;;0.93;;
61397;SDS011;47267;48.130;-2.040;2022-09-09T15:06:26;7.60;;;1.50;;
61397;SDS011;47267;48.130;-2.040;2022-09-09T15:08:54;7.82;;;1.63;;
61397;SDS011;47267;48.130;-2.040;2022-09-09T15:11:22;11.07;;;2.05;;
61397;SDS011;47267;48.130;-2.040;2022-09-09T15:13:50;11.15;;;2.20;;
61397;SDS011;47267;48.130;-2.040;2022-09-09T15:16:20;9.10;;;2.28;;
61397;SDS011;47267;48.130;-2.040;2022-09-09T15:18:50;7.80;;;1.95;;
61397;SDS011;47267;48.130;-2.040;2022-09-09T15:21:20;9.48;;;1.90;;
61397;SDS011;47267;48.130;-2.040;2022-09-09T15:23:48;8.65;;;2.30;;
61397;SDS011;47267;48.130;-2.040;2022-09-09T15:26:14;13.52;;;2.42;;
61397;SDS011;47267;48.130;-2.040;2022-09-09T15:28:44;14.88;;;3.00;;
61397;SDS011;47267;48.130;-2.040;2022-09-09T15:31:16;11.00;;;2.78;;
61397;SDS011;47267;48.130;-2.040;2022-09-09T15:33:48;9.77;;;2.67;;
61397;SDS011;47267;48.130;-2.040;2022-09-09T15:36:19;12.38;;;3.47;;
61397;SDS011;47267;48.130;-2.040;2022-09-09T15:38:47;11.80;;;3.45;;
61397;SDS011;47267;48.130;-2.040;2022-09-09T15:41:13;17.05;;;4.30;;
61397;SDS011;47267;48.130;-2.040;2022-09-09T15:43:47;17.33;;;4.75;;
61397;SDS011;47267;48.130;-2.040;2022-09-09T15:48:46;21.80;;;5.93;;
61397;SDS011;47267;48.130;-2.040;2022-09-09T15:51:14;29.75;;;8.63;;
61397;SDS011;47267;48.130;-2.040;2022-09-09T15:53:39;24.65;;;6.82;;
61397;SDS011;47267;48.130;-2.040;2022-09-09T15:56:05;23.92;;;6.43;;
61397;SDS011;47267;48.130;-2.040;2022-09-09T15:58:32;18.52;;;5.20;;
61397;SDS011;47267;48.130;-2.040;2022-09-09T16:01:02;19.10;;;5.15;;
61397;SDS011;47267;48.130;-2.040;2022-09-09T16:03:35;16.40;;;5.15;;
61397;SDS011;47267;48.130;-2.040;2022-09-09T16:06:01;13.77;;;4.28;;
61397;SDS011;47267;48.130;-2.040;2022-09-09T16:08:33;13.27;;;4.18;;
61397;SDS011;47267;48.130;-2.040;2022-09-09T16:11:06;16.35;;;5.18;;
61397;SDS011;47267;48.130;-2.040;2022-09-09T16:13:38;15.90;;;4.70;;
61397;SDS011;47267;48.130;-2.040;2022-09-09T16:16:05;19.75;;;4.85;;
61397;SDS011;47267;48.130;-2.040;2022-09-09T16:18:38;17.33;;;4.78;;
61397;SDS011;47267;48.130;-2.040;2022-09-09T16:21:05;15.73;;;3.97;;
61397;SDS011;47267;48.130;-2.040;2022-09-09T16:23:33;11.77;;;3.55;;
61397;SDS011;47267;48.130;-2.040;2022-09-09T16:26:00;12.73;;;3.90;;
61397;SDS011;47267;48.130;-2.040;2022-09-09T16:28:26;11.48;;;3.35;;
61397;SDS011;47267;48.130;-2.040;2022-09-09T16:30:53;15.18;;;3.72;;
61397;SDS011;47267;48.130;-2.040;2022-09-09T16:33:19;9.05;;;3.10;;
61397;SDS011;47267;48.130;-2.040;2022-09-09T16:35:45;10.20;;;3.63;;
61397;SDS011;47267;48.130;-2.040;2022-09-09T16:38:10;12.35;;;3.78;;
61397;SDS011;47267;48.130;-2.040;2022-09-09T16:40:37;10.52;;;3.08;;
61397;SDS011;47267;48.130;-2.040;2022-09-09T16:43:03;8.57;;;2.47;;
61397;SDS011;47267;48.130;-2.040;2022-09-09T16:45:30;10.77;;;2.97;;
61397;SDS011;47267;48.130;-2.040;2022-09-09T16:47:57;10.18;;;2.50;;
61397;SDS011;47267;48.130;-2.040;2022-09-09T16:50:24;10.25;;;2.72;;
61397;SDS011;47267;48.130;-2.040;2022-09-09T16:52:50;6.53;;;2.03;;
61397;SDS011;47267;48.130;-2.040;2022-09-09T16:55:17;9.02;;;2.50;;
61397;SDS011;47267;48.130;-2.040;2022-09-09T16:57:45;9.93;;;2.83;;
61397;SDS011;47267;48.130;-2.040;2022-09-09T17:00:13;10.32;;;2.88;;
61397;SDS011;47267;48.130;-2.040;2022-09-09T17:02:44;8.32;;;2.60;;
61397;SDS011;47267;48.130;-2.040;2022-09-09T17:05:10;8.07;;;2.20;;
61397;SDS011;47267;48.130;-2.040;2022-09-09T17:07:37;6.60;;;2.35;;
61397;SDS011;47267;48.130;-2.040;2022-09-09T17:10:03;8.38;;;2.72;;
61397;SDS011;47267;48.130;-2.040;2022-09-09T17:12:30;7.25;;;2.35;;
61397;SDS011;47267;48.130;-2.040;2022-09-09T17:14:57;10.73;;;2.47;;
61397;SDS011;47267;48.130;-2.040;2022-09-09T17:17:24;8.13;;;2.63;;
61397;SDS011;47267;48.130;-2.040;2022-09-09T17:19:51;8.88;;;2.17;;
61397;SDS011;47267;48.130;-2.040;2022-09-09T17:22:17;8.70;;;2.28;;
61397;SDS011;47267;48.130;-2.040;2022-09-09T17:24:44;9.15;;;2.60;;
61397;SDS011;47267;48.130;-2.040;2022-09-09T17:27:10;8.55;;;2.00;;
61397;SDS011;47267;48.130;-2.040;2022-09-09T17:29:36;7.43;;;2.58;;